sensor_id;sensor_type;location;lat;lon;timestamp;P1;durP1;ratioP1;P2;durP2;ratioP2
66169;SDS011;66757;44.024;20.456;2023-01-28T00:00:04;36.28;;;23.23;;
66169;SDS011;66757;44.024;20.456;2023-01-28T00:02:31;68.27;;;44.60;;
66169;SDS011;66757;44.024;20.456;2023-01-28T00:04:59;42.70;;;28.17;;
66169;SDS011;66757;44.024;20.456;2023-01-28T00:07:25;28.13;;;17.95;;
66169;SDS011;66757;44.024;20.456;2023-01-28T00:09:51;29.33;;;17.58;;
66169;SDS011;66757;44.024;20.456;2023-01-28T00:12:17;39.03;;;22.20;;
66169;SDS011;66757;44.024;20.456;2023-01-28T00:14:43;38.88;;;24.42;;
66169;SDS011;66757;44.024;20.456;2023-01-28T00:17:10;38.07;;;23.83;;
66169;SDS011;66757;44.024;20.456;2023-01-28T00:22:28;43.72;;;26.25;;
66169;SDS011;66757;44.024;20.456;2023-01-28T00:24:56;44.60;;;26.02;;
66169;SDS011;66757;44.024;20.456;2023-01-28T00:27:21;45.10;;;26.50;;
66169;SDS011;66757;44.024;20.456;2023-01-28T00:29:47;63.58;;;34.65;;
66169;SDS011;66757;44.024;20.456;2023-01-28T00:32:13;73.10;;;39.33;;
66169;SDS011;66757;44.024;20.456;2023-01-28T00:34:39;67.20;;;35.53;;
66169;SDS011;66757;44.024;20.456;2023-01-28T00:37:19;57.05;;;31.52;;
66169;SDS011;66757;44.024;20.456;2023-01-28T00:39:44;56.72;;;28.83;;
66169;SDS011;66757;44.024;20.456;2023-01-28T00:42:11;86.25;;;44.80;;
66169;SDS011;66757;44.024;20.456;2023-01-28T00:47:44;62.03;;;28.73;;
66169;SDS011;66757;44.024;20.456;2023-01-28T00:50:33;57.83;;;27.45;;
66169;SDS011;66757;44.024;20.456;2023-01-28T00:55:55;79.57;;;33.73;;
66169;SDS011;66757;44.024;20.456;2023-01-28T00:58:37;47.03;;;23.87;;
66169;SDS011;66757;44.024;20.456;2023-01-28T01:04:09;46.97;;;24.63;;
66169;SDS011;66757;44.024;20.456;2023-01-28T01:10:16;66.70;;;34.70;;
66169;SDS011;66757;44.024;20.456;2023-01-28T01:12:56;44.65;;;22.58;;
66169;SDS011;66757;44.024;20.456;2023-01-28T01:15:48;57.22;;;27.55;;
66169;SDS011;66757;44.024;20.456;2023-01-28T01:18:37;70.20;;;40.45;;
66169;SDS011;66757;44.024;20.456;2023-01-28T01:21:14;52.97;;;28.08;;
66169;SDS011;66757;44.024;20.456;2023-01-28T01:23:51;43.35;;;24.52;;
66169;SDS011;66757;44.024;20.456;2023-01-28T01:29:20;24.00;;;14.90;;
66169;SDS011;66757;44.024;20.456;2023-01-28T01:31:47;38.13;;;17.83;;
66169;SDS011;66757;44.024;20.456;2023-01-28T01:34:13;27.13;;;16.67;;
66169;SDS011;66757;44.024;20.456;2023-01-28T01:36:44;28.95;;;17.17;;
66169;SDS011;66757;44.024;20.456;2023-01-28T01:39:45;26.33;;;14.57;;
66169;SDS011;66757;44.024;20.456;2023-01-28T01:42:22;28.13;;;15.88;;
66169;SDS011;66757;44.024;20.456;2023-01-28T01:45:01;32.20;;;17.50;;
66169;SDS011;66757;44.024;20.456;2023-01-28T01:50:35;28.25;;;15.07;;
66169;SDS011;66757;44.024;20.456;2023-01-28T01:53:28;25.73;;;14.33;;
66169;SDS011;66757;44.024;20.456;2023-01-28T01:59:03;24.63;;;14.03;;
66169;SDS011;66757;44.024;20.456;2023-01-28T02:05:01;28.83;;;16.20;;
66169;SDS011;66757;44.024;20.456;2023-01-28T02:07:48;26.45;;;14.80;;
66169;SDS011;66757;44.024;20.456;2023-01-28T02:10:21;38.25;;;20.55;;
66169;SDS011;66757;44.024;20.456;2023-01-28T02:12:49;33.88;;;18.40;;
66169;SDS011;66757;44.024;20.456;2023-01-28T02:15:21;30.75;;;17.38;;
66169;SDS011;66757;44.024;20.456;2023-01-28T02:17:53;49.90;;;23.15;;
66169;SDS011;66757;44.024;20.456;2023-01-28T02:20:26;36.70;;;20.02;;
66169;SDS011;66757;44.024;20.456;2023-01-28T02:25:55;44.58;;;21.20;;
66169;SDS011;66757;44.024;20.456;2023-01-28T02:28:48;31.50;;;16.13;;
66169;SDS011;66757;44.024;20.456;2023-01-28T02:37:11;32.30;;;15.43;;
66169;SDS011;66757;44.024;20.456;2023-01-28T02:43:00;45.27;;;21.67;;
66169;SDS011;66757;44.024;20.456;2023-01-28T02:45:30;32.97;;;16.48;;
66169;SDS011;66757;44.024;20.456;2023-01-28T02:48:18;25.00;;;13.57;;
66169;SDS011;66757;44.024;20.456;2023-01-28T02:50:54;44.13;;;18.85;;
66169;SDS011;66757;44.024;20.456;2023-01-28T02:53:53;31.35;;;16.25;;
66169;SDS011;66757;44.024;20.456;2023-01-28T02:56:22;24.25;;;13.18;;
66169;SDS011;66757;44.024;20.456;2023-01-28T03:07:55;23.87;;;12.80;;
66169;SDS011;66757;44.024;20.456;2023-01-28T03:10:24;30.38;;;15.07;;
66169;SDS011;66757;44.024;20.456;2023-01-28T03:12:52;28.80;;;15.20;;
66169;SDS011;66757;44.024;20.456;2023-01-28T03:15:40;32.42;;;16.40;;
66169;SDS011;66757;44.024;20.456;2023-01-28T03:18:29;24.38;;;13.00;;
66169;SDS011;66757;44.024;20.456;2023-01-28T03:21:21;38.13;;;17.88;;
66169;SDS011;66757;44.024;20.456;2023-01-28T03:24:23;47.13;;;20.10;;
66169;SDS011;66757;44.024;20.456;2023-01-28T03:27:14;20.52;;;11.65;;
66169;SDS011;66757;44.024;20.456;2023-01-28T03:30:04;31.83;;;14.43;;
66169;SDS011;66757;44.024;20.456;2023-01-28T03:32:55;35.70;;;16.50;;
66169;SDS011;66757;44.024;20.456;2023-01-28T03:35:47;57.72;;;22.60;;
66169;SDS011;66757;44.024;20.456;2023-01-28T03:38:32;22.33;;;11.75;;
66169;SDS011;66757;44.024;20.456;2023-01-28T03:41:06;23.00;;;12.63;;
66169;SDS011;66757;44.024;20.456;2023-01-28T03:43:36;43.70;;;19.27;;
66169;SDS011;66757;44.024;20.456;2023-01-28T03:46:03;57.50;;;25.08;;
66169;SDS011;66757;44.024;20.456;2023-01-28T03:48:30;30.67;;;16.02;;
66169;SDS011;66757;44.024;20.456;2023-01-28T03:50:57;85.35;;;36.65;;
66169;SDS011;66757;44.024;20.456;2023-01-28T03:53:26;27.08;;;15.05;;
66169;SDS011;66757;44.024;20.456;2023-01-28T03:55:54;44.45;;;20.98;;
66169;SDS011;66757;44.024;20.456;2023-01-28T03:58:26;27.40;;;14.30;;
66169;SDS011;66757;44.024;20.456;2023-01-28T04:01:12;21.90;;;12.77;;
66169;SDS011;66757;44.024;20.456;2023-01-28T04:03:40;19.47;;;11.10;;
66169;SDS011;66757;44.024;20.456;2023-01-28T04:06:08;28.20;;;13.13;;
66169;SDS011;66757;44.024;20.456;2023-01-28T04:08:34;37.88;;;18.23;;
66169;SDS011;66757;44.024;20.456;2023-01-28T04:11:03;23.08;;;11.52;;
66169;SDS011;66757;44.024;20.456;2023-01-28T04:13:44;21.27;;;11.13;;
66169;SDS011;66757;44.024;20.456;2023-01-28T04:16:12;29.40;;;14.77;;
66169;SDS011;66757;44.024;20.456;2023-01-28T04:18:40;27.30;;;14.93;;
66169;SDS011;66757;44.024;20.456;2023-01-28T04:29:21;36.67;;;18.02;;
66169;SDS011;66757;44.024;20.456;2023-01-28T04:31:50;20.15;;;11.38;;
66169;SDS011;66757;44.024;20.456;2023-01-28T04:34:16;24.02;;;13.30;;
66169;SDS011;66757;44.024;20.456;2023-01-28T04:36:44;21.35;;;11.60;;
66169;SDS011;66757;44.024;20.456;2023-01-28T04:39:11;19.15;;;11.82;;
66169;SDS011;66757;44.024;20.456;2023-01-28T04:41:38;23.63;;;13.45;;
66169;SDS011;66757;44.024;20.456;2023-01-28T04:44:07;23.38;;;14.50;;
66169;SDS011;66757;44.024;20.456;2023-01-28T04:46:34;17.48;;;10.20;;
66169;SDS011;66757;44.024;20.456;2023-01-28T04:49:01;18.73;;;11.38;;
66169;SDS011;66757;44.024;20.456;2023-01-28T04:51:29;17.45;;;10.65;;
66169;SDS011;66757;44.024;20.456;2023-01-28T04:56:26;20.95;;;12.20;;
66169;SDS011;66757;44.024;20.456;2023-01-28T04:58:53;21.92;;;12.65;;
66169;SDS011;66757;44.024;20.456;2023-01-28T05:01:20;28.90;;;16.40;;
66169;SDS011;66757;44.024;20.456;2023-01-28T05:03:49;26.08;;;14.00;;
66169;SDS011;66757;44.024;20.456;2023-01-28T05:06:16;22.45;;;13.68;;
66169;SDS011;66757;44.024;20.456;2023-01-28T05:11:40;18.65;;;12.05;;
66169;SDS011;66757;44.024;20.456;2023-01-28T05:14:07;24.45;;;13.82;;
66169;SDS011;66757;44.024;20.456;2023-01-28T05:16:33;19.98;;;11.18;;
66169;SDS011;66757;44.024;20.456;2023-01-28T05:19:00;14.80;;;8.85;;
66169;SDS011;66757;44.024;20.456;2023-01-28T05:21:28;41.60;;;19.43;;
66169;SDS011;66757;44.024;20.456;2023-01-28T05:23:55;30.50;;;14.77;;
66169;SDS011;66757;44.024;20.456;2023-01-28T05:29:24;20.98;;;11.90;;
66169;SDS011;66757;44.024;20.456;2023-01-28T05:31:50;17.50;;;10.40;;
66169;SDS011;66757;44.024;20.456;2023-01-28T05:34:22;29.90;;;15.93;;
66169;SDS011;66757;44.024;20.456;2023-01-28T05:36:49;18.97;;;10.93;;
66169;SDS011;66757;44.024;20.456;2023-01-28T05:39:18;19.73;;;11.70;;
66169;SDS011;66757;44.024;20.456;2023-01-28T05:41:49;21.73;;;13.13;;
66169;SDS011;66757;44.024;20.456;2023-01-28T05:44:16;28.85;;;14.55;;
66169;SDS011;66757;44.024;20.456;2023-01-28T05:46:48;22.63;;;13.13;;
66169;SDS011;66757;44.024;20.456;2023-01-28T05:49:23;26.02;;;15.48;;
66169;SDS011;66757;44.024;20.456;2023-01-28T05:51:51;28.67;;;16.80;;
66169;SDS011;66757;44.024;20.456;2023-01-28T05:54:18;22.90;;;14.03;;
66169;SDS011;66757;44.024;20.456;2023-01-28T05:56:52;19.55;;;12.88;;
66169;SDS011;66757;44.024;20.456;2023-01-28T05:59:23;26.00;;;14.88;;
66169;SDS011;66757;44.024;20.456;2023-01-28T06:02:14;25.03;;;14.33;;
66169;SDS011;66757;44.024;20.456;2023-01-28T06:04:49;24.50;;;13.87;;
66169;SDS011;66757;44.024;20.456;2023-01-28T06:07:20;23.33;;;13.97;;
66169;SDS011;66757;44.024;20.456;2023-01-28T06:09:49;19.17;;;11.55;;
66169;SDS011;66757;44.024;20.456;2023-01-28T06:12:18;24.47;;;13.50;;
66169;SDS011;66757;44.024;20.456;2023-01-28T06:14:45;21.40;;;12.77;;
66169;SDS011;66757;44.024;20.456;2023-01-28T06:17:14;22.70;;;13.38;;
66169;SDS011;66757;44.024;20.456;2023-01-28T06:19:39;22.73;;;13.82;;
66169;SDS011;66757;44.024;20.456;2023-01-28T06:22:06;28.80;;;15.20;;
66169;SDS011;66757;44.024;20.456;2023-01-28T06:24:32;27.83;;;15.53;;
66169;SDS011;66757;44.024;20.456;2023-01-28T06:26:58;25.53;;;14.50;;
66169;SDS011;66757;44.024;20.456;2023-01-28T06:29:25;31.07;;;19.27;;
66169;SDS011;66757;44.024;20.456;2023-01-28T06:31:51;30.37;;;17.93;;
66169;SDS011;66757;44.024;20.456;2023-01-28T06:34:16;28.33;;;15.93;;
66169;SDS011;66757;44.024;20.456;2023-01-28T06:36:42;35.78;;;18.42;;
66169;SDS011;66757;44.024;20.456;2023-01-28T06:39:07;106.33;;;57.33;;
66169;SDS011;66757;44.024;20.456;2023-01-28T06:41:33;77.35;;;41.60;;
66169;SDS011;66757;44.024;20.456;2023-01-28T06:43:59;46.42;;;27.80;;
66169;SDS011;66757;44.024;20.456;2023-01-28T06:46:24;55.80;;;28.40;;
66169;SDS011;66757;44.024;20.456;2023-01-28T06:48:49;71.30;;;35.42;;
66169;SDS011;66757;44.024;20.456;2023-01-28T06:51:15;67.78;;;33.30;;
66169;SDS011;66757;44.024;20.456;2023-01-28T06:53:42;74.78;;;35.90;;
66169;SDS011;66757;44.024;20.456;2023-01-28T06:56:07;47.95;;;27.77;;
66169;SDS011;66757;44.024;20.456;2023-01-28T06:58:33;66.38;;;35.50;;
66169;SDS011;66757;44.024;20.456;2023-01-28T07:00:59;57.40;;;30.83;;
66169;SDS011;66757;44.024;20.456;2023-01-28T07:03:25;63.78;;;33.80;;
66169;SDS011;66757;44.024;20.456;2023-01-28T07:05:50;54.78;;;28.88;;
66169;SDS011;66757;44.024;20.456;2023-01-28T07:08:16;58.22;;;32.85;;
66169;SDS011;66757;44.024;20.456;2023-01-28T07:10:43;32.53;;;20.15;;
66169;SDS011;66757;44.024;20.456;2023-01-28T07:13:08;39.83;;;24.30;;
66169;SDS011;66757;44.024;20.456;2023-01-28T07:15:34;48.10;;;29.67;;
66169;SDS011;66757;44.024;20.456;2023-01-28T07:18:00;48.25;;;28.25;;
66169;SDS011;66757;44.024;20.456;2023-01-28T07:20:25;50.13;;;30.15;;
66169;SDS011;66757;44.024;20.456;2023-01-28T07:22:51;46.20;;;27.57;;
66169;SDS011;66757;44.024;20.456;2023-01-28T07:25:16;49.30;;;27.43;;
66169;SDS011;66757;44.024;20.456;2023-01-28T07:27:46;38.90;;;23.75;;
66169;SDS011;66757;44.024;20.456;2023-01-28T07:30:13;33.50;;;20.10;;
66169;SDS011;66757;44.024;20.456;2023-01-28T07:32:39;40.13;;;24.00;;
66169;SDS011;66757;44.024;20.456;2023-01-28T07:35:05;40.77;;;23.03;;
66169;SDS011;66757;44.024;20.456;2023-01-28T07:37:31;47.55;;;25.60;;
66169;SDS011;66757;44.024;20.456;2023-01-28T07:39:56;50.88;;;26.88;;
66169;SDS011;66757;44.024;20.456;2023-01-28T07:42:22;59.67;;;30.63;;
66169;SDS011;66757;44.024;20.456;2023-01-28T07:44:47;55.17;;;29.17;;
66169;SDS011;66757;44.024;20.456;2023-01-28T07:47:14;68.53;;;36.70;;
66169;SDS011;66757;44.024;20.456;2023-01-28T07:49:39;135.30;;;75.95;;
66169;SDS011;66757;44.024;20.456;2023-01-28T07:52:05;58.63;;;33.17;;
66169;SDS011;66757;44.024;20.456;2023-01-28T07:54:31;36.83;;;21.93;;
66169;SDS011;66757;44.024;20.456;2023-01-28T07:56:57;50.03;;;27.17;;
66169;SDS011;66757;44.024;20.456;2023-01-28T07:59:22;65.25;;;38.17;;
66169;SDS011;66757;44.024;20.456;2023-01-28T08:01:48;53.40;;;30.98;;
66169;SDS011;66757;44.024;20.456;2023-01-28T08:04:13;49.30;;;27.33;;
66169;SDS011;66757;44.024;20.456;2023-01-28T08:06:38;51.50;;;29.92;;
66169;SDS011;66757;44.024;20.456;2023-01-28T08:09:04;42.65;;;24.50;;
66169;SDS011;66757;44.024;20.456;2023-01-28T08:11:32;33.95;;;20.95;;
66169;SDS011;66757;44.024;20.456;2023-01-28T08:14:02;41.42;;;23.73;;
66169;SDS011;66757;44.024;20.456;2023-01-28T08:16:27;45.33;;;25.52;;
66169;SDS011;66757;44.024;20.456;2023-01-28T08:18:53;37.37;;;21.57;;
66169;SDS011;66757;44.024;20.456;2023-01-28T08:21:19;38.60;;;20.92;;
66169;SDS011;66757;44.024;20.456;2023-01-28T08:23:44;57.13;;;36.95;;
66169;SDS011;66757;44.024;20.456;2023-01-28T08:26:10;41.95;;;23.65;;
66169;SDS011;66757;44.024;20.456;2023-01-28T08:28:35;158.98;;;84.22;;
66169;SDS011;66757;44.024;20.456;2023-01-28T08:31:01;63.47;;;34.95;;
66169;SDS011;66757;44.024;20.456;2023-01-28T08:33:27;49.38;;;26.95;;
66169;SDS011;66757;44.024;20.456;2023-01-28T08:35:52;51.57;;;30.27;;
66169;SDS011;66757;44.024;20.456;2023-01-28T08:38:18;50.60;;;29.30;;
66169;SDS011;66757;44.024;20.456;2023-01-28T08:40:44;57.40;;;34.00;;
66169;SDS011;66757;44.024;20.456;2023-01-28T08:43:10;49.53;;;30.93;;
66169;SDS011;66757;44.024;20.456;2023-01-28T08:45:35;38.05;;;22.98;;
66169;SDS011;66757;44.024;20.456;2023-01-28T08:48:04;46.13;;;26.15;;
66169;SDS011;66757;44.024;20.456;2023-01-28T08:50:33;46.30;;;25.95;;
66169;SDS011;66757;44.024;20.456;2023-01-28T08:55:34;46.13;;;27.50;;
66169;SDS011;66757;44.024;20.456;2023-01-28T08:58:05;34.75;;;20.23;;
66169;SDS011;66757;44.024;20.456;2023-01-28T09:00:34;38.22;;;20.77;;
66169;SDS011;66757;44.024;20.456;2023-01-28T09:03:00;42.20;;;22.57;;
66169;SDS011;66757;44.024;20.456;2023-01-28T09:05:26;38.65;;;20.40;;
66169;SDS011;66757;44.024;20.456;2023-01-28T09:07:52;54.50;;;31.07;;
66169;SDS011;66757;44.024;20.456;2023-01-28T09:10:17;58.17;;;35.33;;
66169;SDS011;66757;44.024;20.456;2023-01-28T09:12:46;48.05;;;28.15;;
66169;SDS011;66757;44.024;20.456;2023-01-28T09:15:12;52.50;;;29.97;;
66169;SDS011;66757;44.024;20.456;2023-01-28T09:17:38;46.15;;;26.08;;
66169;SDS011;66757;44.024;20.456;2023-01-28T09:20:05;46.30;;;25.80;;
66169;SDS011;66757;44.024;20.456;2023-01-28T09:22:31;49.53;;;29.63;;
66169;SDS011;66757;44.024;20.456;2023-01-28T09:24:57;52.67;;;29.65;;
66169;SDS011;66757;44.024;20.456;2023-01-28T09:27:22;44.28;;;26.25;;
66169;SDS011;66757;44.024;20.456;2023-01-28T09:29:47;46.50;;;27.90;;
66169;SDS011;66757;44.024;20.456;2023-01-28T09:32:14;40.22;;;23.63;;
66169;SDS011;66757;44.024;20.456;2023-01-28T09:34:39;35.25;;;20.92;;
66169;SDS011;66757;44.024;20.456;2023-01-28T09:37:05;34.85;;;18.48;;
66169;SDS011;66757;44.024;20.456;2023-01-28T09:39:30;39.95;;;21.13;;
66169;SDS011;66757;44.024;20.456;2023-01-28T09:47:31;40.67;;;21.65;;
66169;SDS011;66757;44.024;20.456;2023-01-28T09:50:02;39.23;;;21.40;;
66169;SDS011;66757;44.024;20.456;2023-01-28T09:52:33;44.83;;;24.33;;
66169;SDS011;66757;44.024;20.456;2023-01-28T09:57:52;60.17;;;35.05;;
66169;SDS011;66757;44.024;20.456;2023-01-28T10:00:31;53.00;;;28.40;;
66169;SDS011;66757;44.024;20.456;2023-01-28T10:18:09;59.88;;;32.95;;
66169;SDS011;66757;44.024;20.456;2023-01-28T10:20:42;78.03;;;41.00;;
66169;SDS011;66757;44.024;20.456;2023-01-28T10:23:18;169.10;;;85.72;;
66169;SDS011;66757;44.024;20.456;2023-01-28T10:26:10;68.22;;;35.72;;
66169;SDS011;66757;44.024;20.456;2023-01-28T10:28:51;57.30;;;31.40;;
66169;SDS011;66757;44.024;20.456;2023-01-28T10:31:20;53.07;;;28.23;;
66169;SDS011;66757;44.024;20.456;2023-01-28T10:33:47;121.80;;;59.43;;
66169;SDS011;66757;44.024;20.456;2023-01-28T10:36:12;135.67;;;77.23;;
66169;SDS011;66757;44.024;20.456;2023-01-28T10:38:39;89.67;;;51.93;;
66169;SDS011;66757;44.024;20.456;2023-01-28T10:41:05;50.90;;;29.35;;
66169;SDS011;66757;44.024;20.456;2023-01-28T10:43:34;48.22;;;28.00;;
66169;SDS011;66757;44.024;20.456;2023-01-28T10:48:45;80.32;;;48.20;;
66169;SDS011;66757;44.024;20.456;2023-01-28T10:51:31;40.83;;;23.07;;
66169;SDS011;66757;44.024;20.456;2023-01-28T10:53:58;66.15;;;36.28;;
66169;SDS011;66757;44.024;20.456;2023-01-28T10:56:25;57.90;;;31.42;;
66169;SDS011;66757;44.024;20.456;2023-01-28T11:04:25;55.67;;;31.80;;
66169;SDS011;66757;44.024;20.456;2023-01-28T11:06:55;59.25;;;30.00;;
66169;SDS011;66757;44.024;20.456;2023-01-28T11:09:25;63.00;;;34.33;;
66169;SDS011;66757;44.024;20.456;2023-01-28T11:11:55;47.47;;;27.33;;
66169;SDS011;66757;44.024;20.456;2023-01-28T11:14:22;52.38;;;28.40;;
66169;SDS011;66757;44.024;20.456;2023-01-28T11:16:49;55.78;;;28.42;;
66169;SDS011;66757;44.024;20.456;2023-01-28T11:19:17;59.05;;;30.80;;
66169;SDS011;66757;44.024;20.456;2023-01-28T11:21:51;57.28;;;31.55;;
66169;SDS011;66757;44.024;20.456;2023-01-28T11:24:20;57.55;;;31.85;;
66169;SDS011;66757;44.024;20.456;2023-01-28T11:26:51;62.00;;;34.30;;
66169;SDS011;66757;44.024;20.456;2023-01-28T11:32:18;39.30;;;23.33;;
66169;SDS011;66757;44.024;20.456;2023-01-28T11:34:51;47.85;;;26.85;;
66169;SDS011;66757;44.024;20.456;2023-01-28T11:37:21;51.73;;;27.40;;
66169;SDS011;66757;44.024;20.456;2023-01-28T11:39:59;44.15;;;25.00;;
66169;SDS011;66757;44.024;20.456;2023-01-28T11:42:25;43.10;;;23.77;;
66169;SDS011;66757;44.024;20.456;2023-01-28T11:44:51;40.22;;;22.35;;
66169;SDS011;66757;44.024;20.456;2023-01-28T11:55:48;52.33;;;28.00;;
66169;SDS011;66757;44.024;20.456;2023-01-28T12:01:05;40.53;;;23.50;;
66169;SDS011;66757;44.024;20.456;2023-01-28T12:25:34;37.47;;;18.77;;
66169;SDS011;66757;44.024;20.456;2023-01-28T12:28:11;36.17;;;21.15;;
66169;SDS011;66757;44.024;20.456;2023-01-28T12:38:47;47.67;;;24.33;;
66169;SDS011;66757;44.024;20.456;2023-01-28T12:41:45;44.23;;;21.80;;
66169;SDS011;66757;44.024;20.456;2023-01-28T12:44:17;37.90;;;21.30;;
66169;SDS011;66757;44.024;20.456;2023-01-28T12:46:49;34.40;;;18.85;;
66169;SDS011;66757;44.024;20.456;2023-01-28T12:52:00;31.60;;;17.80;;
66169;SDS011;66757;44.024;20.456;2023-01-28T12:54:30;35.63;;;19.80;;
66169;SDS011;66757;44.024;20.456;2023-01-28T12:57:01;36.90;;;20.88;;
66169;SDS011;66757;44.024;20.456;2023-01-28T12:59:38;40.13;;;22.77;;
66169;SDS011;66757;44.024;20.456;2023-01-28T13:04:53;49.63;;;29.70;;
66169;SDS011;66757;44.024;20.456;2023-01-28T13:09:59;43.50;;;24.63;;
66169;SDS011;66757;44.024;20.456;2023-01-28T13:14:56;39.17;;;21.30;;
66169;SDS011;66757;44.024;20.456;2023-01-28T13:17:27;45.45;;;22.63;;
66169;SDS011;66757;44.024;20.456;2023-01-28T13:19:55;39.00;;;23.92;;
66169;SDS011;66757;44.024;20.456;2023-01-28T13:22:29;38.88;;;23.10;;
66169;SDS011;66757;44.024;20.456;2023-01-28T13:25:10;44.03;;;25.38;;
66169;SDS011;66757;44.024;20.456;2023-01-28T13:27:57;32.35;;;19.75;;
66169;SDS011;66757;44.024;20.456;2023-01-28T13:30:25;39.25;;;21.48;;
66169;SDS011;66757;44.024;20.456;2023-01-28T13:33:04;36.42;;;22.05;;
66169;SDS011;66757;44.024;20.456;2023-01-28T13:35:34;50.78;;;29.77;;
66169;SDS011;66757;44.024;20.456;2023-01-28T13:38:06;45.37;;;25.20;;
66169;SDS011;66757;44.024;20.456;2023-01-28T13:40:33;52.72;;;30.10;;
66169;SDS011;66757;44.024;20.456;2023-01-28T13:43:04;49.40;;;28.02;;
66169;SDS011;66757;44.024;20.456;2023-01-28T13:45:31;59.55;;;34.00;;
66169;SDS011;66757;44.024;20.456;2023-01-28T13:50:53;47.55;;;29.08;;
66169;SDS011;66757;44.024;20.456;2023-01-28T13:53:22;51.28;;;30.35;;
66169;SDS011;66757;44.024;20.456;2023-01-28T13:55:57;55.60;;;32.80;;
66169;SDS011;66757;44.024;20.456;2023-01-28T13:59:12;56.72;;;33.20;;
66169;SDS011;66757;44.024;20.456;2023-01-28T14:12:22;49.22;;;27.60;;
66169;SDS011;66757;44.024;20.456;2023-01-28T14:20:53;43.03;;;24.40;;
66169;SDS011;66757;44.024;20.456;2023-01-28T14:23:13;45.20;;;28.08;;
66169;SDS011;66757;44.024;20.456;2023-01-28T14:25:51;44.95;;;27.58;;
66169;SDS011;66757;44.024;20.456;2023-01-28T14:31:29;51.10;;;29.67;;
66169;SDS011;66757;44.024;20.456;2023-01-28T14:34:03;72.70;;;34.00;;
66169;SDS011;66757;44.024;20.456;2023-01-28T14:39:02;41.25;;;24.02;;
66169;SDS011;66757;44.024;20.456;2023-01-28T14:41:28;58.45;;;33.38;;
66169;SDS011;66757;44.024;20.456;2023-01-28T14:43:54;50.67;;;31.90;;
66169;SDS011;66757;44.024;20.456;2023-01-28T14:46:40;39.22;;;23.17;;
66169;SDS011;66757;44.024;20.456;2023-01-28T15:00:00;73.13;;;41.45;;
66169;SDS011;66757;44.024;20.456;2023-01-28T15:02:27;69.20;;;39.88;;
66169;SDS011;66757;44.024;20.456;2023-01-28T15:05:05;53.38;;;31.73;;
66169;SDS011;66757;44.024;20.456;2023-01-28T15:07:33;42.25;;;24.58;;
66169;SDS011;66757;44.024;20.456;2023-01-28T15:10:03;43.80;;;25.58;;
66169;SDS011;66757;44.024;20.456;2023-01-28T15:12:37;49.13;;;29.70;;
66169;SDS011;66757;44.024;20.456;2023-01-28T15:15:10;51.58;;;29.27;;
66169;SDS011;66757;44.024;20.456;2023-01-28T15:17:41;48.33;;;27.23;;
66169;SDS011;66757;44.024;20.456;2023-01-28T15:20:08;59.65;;;34.50;;
66169;SDS011;66757;44.024;20.456;2023-01-28T15:22:40;103.90;;;55.88;;
66169;SDS011;66757;44.024;20.456;2023-01-28T15:25:13;117.60;;;63.93;;
66169;SDS011;66757;44.024;20.456;2023-01-28T15:27:43;58.50;;;34.75;;
66169;SDS011;66757;44.024;20.456;2023-01-28T15:32:44;51.15;;;29.30;;
66169;SDS011;66757;44.024;20.456;2023-01-28T15:35:11;66.85;;;41.25;;
66169;SDS011;66757;44.024;20.456;2023-01-28T15:37:38;96.15;;;61.75;;
66169;SDS011;66757;44.024;20.456;2023-01-28T15:40:04;84.97;;;55.30;;
66169;SDS011;66757;44.024;20.456;2023-01-28T15:42:31;76.07;;;44.97;;
66169;SDS011;66757;44.024;20.456;2023-01-28T15:44:57;54.35;;;32.53;;
66169;SDS011;66757;44.024;20.456;2023-01-28T15:47:24;49.27;;;30.20;;
66169;SDS011;66757;44.024;20.456;2023-01-28T15:49:54;44.00;;;27.60;;
66169;SDS011;66757;44.024;20.456;2023-01-28T15:52:28;67.45;;;37.80;;
66169;SDS011;66757;44.024;20.456;2023-01-28T15:54:57;42.92;;;25.88;;
66169;SDS011;66757;44.024;20.456;2023-01-28T15:57:32;57.75;;;31.98;;
66169;SDS011;66757;44.024;20.456;2023-01-28T16:02:31;48.78;;;28.55;;
66169;SDS011;66757;44.024;20.456;2023-01-28T16:04:57;57.80;;;31.63;;
66169;SDS011;66757;44.024;20.456;2023-01-28T16:07:25;80.85;;;45.08;;
66169;SDS011;66757;44.024;20.456;2023-01-28T16:09:55;62.00;;;34.03;;
66169;SDS011;66757;44.024;20.456;2023-01-28T16:12:22;56.20;;;32.60;;
66169;SDS011;66757;44.024;20.456;2023-01-28T16:14:52;57.22;;;32.08;;
66169;SDS011;66757;44.024;20.456;2023-01-28T16:17:21;43.88;;;25.88;;
66169;SDS011;66757;44.024;20.456;2023-01-28T16:19:56;52.10;;;30.17;;
66169;SDS011;66757;44.024;20.456;2023-01-28T16:22:35;64.75;;;37.60;;
66169;SDS011;66757;44.024;20.456;2023-01-28T16:25:03;42.08;;;25.23;;
66169;SDS011;66757;44.024;20.456;2023-01-28T16:27:51;44.13;;;27.45;;
66169;SDS011;66757;44.024;20.456;2023-01-28T16:30:17;51.13;;;30.85;;
66169;SDS011;66757;44.024;20.456;2023-01-28T16:32:43;53.85;;;30.27;;
66169;SDS011;66757;44.024;20.456;2023-01-28T16:35:12;42.17;;;23.88;;
66169;SDS011;66757;44.024;20.456;2023-01-28T16:37:39;56.63;;;30.60;;
66169;SDS011;66757;44.024;20.456;2023-01-28T16:40:05;45.05;;;25.55;;
66169;SDS011;66757;44.024;20.456;2023-01-28T16:42:31;57.15;;;31.65;;
66169;SDS011;66757;44.024;20.456;2023-01-28T16:44:57;56.90;;;32.58;;
66169;SDS011;66757;44.024;20.456;2023-01-28T16:47:22;51.75;;;29.80;;
66169;SDS011;66757;44.024;20.456;2023-01-28T16:49:48;50.60;;;29.20;;
66169;SDS011;66757;44.024;20.456;2023-01-28T16:52:13;58.05;;;33.15;;
66169;SDS011;66757;44.024;20.456;2023-01-28T16:54:39;51.38;;;29.65;;
66169;SDS011;66757;44.024;20.456;2023-01-28T16:57:11;61.50;;;30.08;;
66169;SDS011;66757;44.024;20.456;2023-01-28T16:59:39;53.53;;;29.07;;
66169;SDS011;66757;44.024;20.456;2023-01-28T17:02:05;61.70;;;34.97;;
66169;SDS011;66757;44.024;20.456;2023-01-28T17:04:30;67.22;;;38.28;;
66169;SDS011;66757;44.024;20.456;2023-01-28T17:06:56;72.45;;;38.40;;
66169;SDS011;66757;44.024;20.456;2023-01-28T17:09:22;64.47;;;34.58;;
66169;SDS011;66757;44.024;20.456;2023-01-28T17:11:48;58.78;;;32.47;;
66169;SDS011;66757;44.024;20.456;2023-01-28T17:14:13;52.70;;;30.05;;
66169;SDS011;66757;44.024;20.456;2023-01-28T17:16:38;58.60;;;32.92;;
66169;SDS011;66757;44.024;20.456;2023-01-28T17:19:04;58.78;;;33.97;;
66169;SDS011;66757;44.024;20.456;2023-01-28T17:21:30;54.00;;;28.98;;
66169;SDS011;66757;44.024;20.456;2023-01-28T17:23:56;51.47;;;27.63;;
66169;SDS011;66757;44.024;20.456;2023-01-28T17:26:21;61.50;;;34.70;;
66169;SDS011;66757;44.024;20.456;2023-01-28T17:28:50;49.92;;;28.02;;
66169;SDS011;66757;44.024;20.456;2023-01-28T17:31:19;137.90;;;69.15;;
66169;SDS011;66757;44.024;20.456;2023-01-28T17:33:45;87.05;;;51.25;;
66169;SDS011;66757;44.024;20.456;2023-01-28T17:36:11;78.45;;;46.95;;
66169;SDS011;66757;44.024;20.456;2023-01-28T17:38:36;67.15;;;38.50;;
66169;SDS011;66757;44.024;20.456;2023-01-28T17:41:06;75.13;;;37.13;;